Time;durP1;ratioP1;P1;durP2;ratioP2;P2;SDS_P1;SDS_P2;PMS_P1;PMS_P2;Temp;Humidity;BMP_temperature;BMP_pressure;BME280_temperature;BME280_humidity;BME280_pressure;Samples;Min_cycle;Max_cycle;Signal;HPM_P1;HPM_P2
2022/11/04 00:01:28;;;;;;;1.43;1.13;;;13.80;59.90;;;;;;20856;6748;118939;-88
2022/11/04 00:04:04;;;;;;;1.70;1.50;;;13.60;59.90;;;;;;20649;6748;277535;-89
2022/11/04 00:06:48;;;;;;;1.67;1.57;;;13.60;59.90;;;;;;20600;6797;306758;-88
2022/11/04 00:09:15;;;;;;;1.23;1.13;;;13.80;59.10;;;;;;20829;6756;117051;-90
2022/11/04 00:14:37;;;;;;;1.33;1.30;;;13.70;59.10;;;;;;20505;6800;118005;-90
2022/11/04 00:17:24;;;;;;;2.10;1.50;;;13.50;59.20;;;;;;20553;6756;342162;-87
2022/11/04 00:28:45;;;;;;;1.20;1.20;;;12.90;60.50;;;;;;20861;6753;117707;-89
2022/11/04 00:34:27;;;;;;;1.33;1.33;;;12.60;61.50;;;;;;20661;6750;280648;-89
2022/11/04 00:36:54;;;;;;;1.40;1.40;;;12.90;61.10;;;;;;20801;6746;117429;-94
2022/11/04 00:39:29;;;;;;;1.45;1.40;;;12.90;61.10;;;;;;20548;6770;307942;-89
2022/11/04 00:42:06;;;;;;;1.47;1.37;;;13.50;60.20;;;;;;20507;6781;287301;-90
2022/11/04 00:44:41;;;;;;;2.08;1.60;;;13.40;60.00;;;;;;20489;6798;307363;-91
2022/11/04 00:47:27;;;;;;;1.13;1.13;;;13.70;59.20;;;;;;20408;6789;309734;-91
2022/11/04 00:49:52;;;;;;;2.23;1.50;;;13.90;58.50;;;;;;20483;6798;310852;-89
2022/11/04 00:52:28;;;;;;;1.50;1.40;;;14.10;57.90;;;;;;20448;6772;337198;-91
2022/11/04 00:55:04;;;;;;;1.67;1.40;;;14.20;57.50;;;;;;20665;6755;277119;-89
2022/11/04 00:57:39;;;;;;;1.37;1.27;;;14.30;57.00;;;;;;20671;6757;117612;-91
2022/11/04 01:00:15;;;;;;;1.50;1.40;;;14.00;57.30;;;;;;20605;6776;280923;-88
2022/11/04 01:03:01;;;;;;;1.60;1.50;;;14.10;57.20;;;;;;20324;6801;282115;-88
2022/11/04 01:05:27;;;;;;;1.40;1.40;;;14.10;57.20;;;;;;20511;6795;299869;-87
2022/11/04 01:08:03;;;;;;;1.20;1.20;;;14.20;56.60;;;;;;20479;6841;307344;-88
2022/11/04 01:32:24;;;;;;;1.00;1.00;;;14.70;54.40;;;;;;21213;6601;67612;-90
2022/11/04 01:34:50;;;;;;;1.00;1.00;;;14.40;54.90;;;;;;20566;6923;116563;-90
2022/11/04 01:37:16;;;;;;;1.00;0.90;;;13.90;55.60;;;;;;20584;6906;118070;-90
2022/11/04 01:39:42;;;;;;;0.95;0.93;;;13.60;56.50;;;;;;20548;6906;117690;-90
2022/11/04 01:42:07;;;;;;;1.02;1.02;;;13.30;57.30;;;;;;20291;6906;348582;-89
2022/11/04 01:44:46;;;;;;;0.82;0.82;;;13.40;58.30;;;;;;20517;6923;76735;-90
2022/11/04 01:47:22;;;;;;;1.10;1.10;;;13.30;58.20;;;;;;20553;6907;70010;-89
2022/11/04 01:49:47;;;;;;;0.98;0.98;;;13.10;58.60;;;;;;20343;6907;344982;-90
2022/11/04 01:52:21;;;;;;;1.43;1.10;;;13.20;59.10;;;;;;20538;6907;117969;-90
2022/11/04 01:54:48;;;;;;;1.00;1.00;;;13.20;59.10;;;;;;20250;6923;311851;-90
2022/11/04 01:57:14;;;;;;;1.10;1.10;;;13.30;59.30;;;;;;20323;6907;313163;-91
2022/11/04 01:59:40;;;;;;;0.80;0.80;;;13.80;57.90;;;;;;20310;6907;311148;-91
2022/11/04 02:02:06;;;;;;;0.93;0.83;;;13.80;57.80;;;;;;20307;6907;284559;-92
2022/11/04 02:04:31;;;;;;;0.98;0.98;;;14.00;57.60;;;;;;20323;6907;301715;-92
2022/11/04 02:06:57;;;;;;;0.93;0.93;;;14.10;57.20;;;;;;20539;6907;117647;-91
2022/11/04 02:09:22;;;;;;;0.90;0.90;;;13.80;57.40;;;;;;20577;6907;69387;-90
2022/11/04 02:14:33;;;;;;;0.73;0.73;;;13.20;59.00;;;;;;20585;6907;117190;-89
2022/11/04 02:17:19;;;;;;;1.20;1.20;;;12.90;59.60;;;;;;20357;6907;284567;-90
2022/11/04 02:20:14;;;;;;;0.83;0.83;;;13.00;60.40;;;;;;20502;6907;117919;-91
2022/11/04 02:22:56;;;;;;;1.20;1.00;;;12.90;60.10;;;;;;20545;6907;117568;-90
2022/11/04 02:25:48;;;;;;;0.90;0.90;;;12.70;60.60;;;;;;20309;6907;329219;-90
2022/11/04 02:28:37;;;;;;;1.33;1.23;;;12.90;61.00;;;;;;20336;6907;326999;-90
2022/11/04 02:31:06;;;;;;;1.30;1.20;;;13.30;60.10;;;;;;20331;6907;310321;-91
2022/11/04 02:33:48;;;;;;;1.40;1.30;;;13.70;59.20;;;;;;20337;6907;280513;-90
2022/11/04 02:36:43;;;;;;;1.33;1.23;;;13.50;59.40;;;;;;20560;6902;116769;-90
2022/11/04 02:39:12;;;;;;;1.13;1.10;;;13.50;59.40;;;;;;20539;6902;117514;-91
2022/11/04 02:41:41;;;;;;;1.30;1.20;;;13.00;60.10;;;;;;20519;6900;118855;-90
2022/11/04 02:44:17;;;;;;;2.03;1.15;;;12.80;60.90;;;;;;20251;6916;338107;-91
2022/11/04 02:46:42;;;;;;;1.20;1.10;;;12.90;61.30;;;;;;20286;6916;341346;-90
2022/11/04 02:49:18;;;;;;;1.37;1.27;;;13.10;60.40;;;;;;20445;6916;117529;-90
2022/11/04 02:51:48;;;;;;;1.90;1.23;;;13.20;60.40;;;;;;20290;6916;309528;-90
2022/11/04 02:54:16;;;;;;;1.33;1.17;;;13.20;60.40;;;;;;20287;6916;281687;-91
2022/11/04 02:56:48;;;;;;;0.90;0.90;;;13.40;60.00;;;;;;20491;6916;117546;-91
2022/11/04 02:59:13;;;;;;;0.73;0.73;;;13.30;60.00;;;;;;20501;6916;119619;-90
2022/11/04 03:01:38;;;;;;;0.80;0.80;;;13.00;60.50;;;;;;20481;6917;117628;-89
2022/11/04 03:04:13;;;;;;;0.70;0.70;;;12.70;61.10;;;;;;20479;6917;118873;-90
2022/11/04 03:06:38;;;;;;;0.80;0.80;;;12.50;61.60;;;;;;20483;6917;118169;-90
2022/11/04 03:09:04;;;;;;;0.87;0.87;;;12.30;62.00;;;;;;20492;6919;118145;-90
2022/11/04 03:11:29;;;;;;;0.70;0.70;;;12.20;62.40;;;;;;20285;6919;310847;-89
2022/11/04 03:13:59;;;;;;;0.83;0.83;;;12.40;62.20;;;;;;20270;6919;313564;-90
2022/11/04 03:16:27;;;;;;;0.70;0.70;;;12.70;61.10;;;;;;20443;6918;117756;-90
2022/11/04 03:19:16;;;;;;;0.90;0.90;;;12.80;60.60;;;;;;20251;6919;340037;-91
2022/11/04 03:21:42;;;;;;;0.70;0.70;;;12.80;60.60;;;;;;20502;6919;118163;-90
2022/11/04 03:24:08;;;;;;;0.70;0.70;;;12.70;61.10;;;;;;20263;6913;279388;-91
2022/11/04 03:26:59;;;;;;;0.80;0.80;;;12.80;60.60;;;;;;20305;6913;319430;-91
2022/11/04 03:29:26;;;;;;;0.90;0.83;;;12.80;59.40;;;;;;20517;6913;119634;-90
2022/11/04 03:32:19;;;;;;;0.80;0.80;;;12.90;60.00;;;;;;20261;6913;310912;-90
2022/11/04 03:34:44;;;;;;;0.60;0.60;;;12.80;60.00;;;;;;20574;6913;117883;-88
2022/11/04 03:37:10;;;;;;;0.70;0.60;;;12.70;60.10;;;;;;20305;6913;336291;-90
2022/11/04 03:39:35;;;;;;;0.80;0.80;;;12.70;60.20;;;;;;20320;6912;340875;-89
2022/11/04 03:42:01;;;;;;;0.65;0.65;;;13.00;59.60;;;;;;20301;6912;278793;-90
2022/11/04 03:44:26;;;;;;;0.70;0.60;;;13.20;59.20;;;;;;20510;6912;118807;-90
2022/11/04 03:46:53;;;;;;;0.60;0.60;;;13.00;59.20;;;;;;20311;6912;337239;-90
2022/11/04 03:49:21;;;;;;;0.83;0.63;;;13.00;59.10;;;;;;20307;6912;309642;-90
2022/11/04 03:51:46;;;;;;;0.60;0.60;;;13.20;58.80;;;;;;20519;6912;118381;-89
2022/11/04 03:54:12;;;;;;;0.60;0.60;;;13.00;58.90;;;;;;20459;6911;117255;-90
2022/11/04 03:56:54;;;;;;;0.60;0.60;;;12.70;59.70;;;;;;20345;6911;308478;-90
2022/11/04 03:59:33;;;;;;;0.70;0.70;;;12.70;59.50;;;;;;20541;6911;118799;-90
2022/11/04 04:02:09;;;;;;;0.70;0.70;;;12.70;59.40;;;;;;20313;6911;312126;-91
2022/11/04 04:04:38;;;;;;;0.53;0.53;;;12.70;59.30;;;;;;20489;6912;119843;-90
2022/11/04 04:07:04;;;;;;;0.50;0.50;;;12.60;59.40;;;;;;20487;6912;117589;-89
2022/11/04 04:09:30;;;;;;;0.50;0.50;;;12.40;60.00;;;;;;20282;6912;338467;-90
2022/11/04 04:11:56;;;;;;;1.70;0.60;;;12.50;60.10;;;;;;20473;6912;119285;-91
2022/11/04 04:14:39;;;;;;;0.50;0.50;;;12.40;60.00;;;;;;20302;6912;319087;-91
2022/11/04 04:17:28;;;;;;;0.77;0.77;;;12.80;58.30;;;;;;20309;6912;337694;-90
2022/11/04 04:19:53;;;;;;;1.50;1.20;;;12.80;58.40;;;;;;20269;6912;308519;-89
2022/11/04 04:22:21;;;;;;;1.17;1.10;;;13.10;57.50;;;;;;20506;6912;119719;-91
2022/11/04 04:27:32;;;;;;;0.83;0.83;;;12.90;58.10;;;;;;20401;6912;305656;-88
2022/11/04 04:30:01;;;;;;;0.65;0.62;;;13.10;57.50;;;;;;20568;6912;116849;-88
2022/11/04 04:32:29;;;;;;;0.73;0.70;;;12.70;58.60;;;;;;20560;6912;119297;-88
2022/11/04 04:35:40;;;;;;;1.05;1.00;;;12.60;58.50;;;;;;20331;6912;279808;-89
2022/11/04 04:37:20;;;;;;;1.50;1.40;;;12.70;58.40;;;;;;20469;6912;117494;-90
2022/11/04 04:45:33;;;;;;;1.20;0.63;;;12.60;58.70;;;;;;20524;6912;118617;-90
2022/11/04 04:47:59;;;;;;;1.10;0.50;;;12.30;59.30;;;;;;20494;6912;121968;-90
2022/11/04 04:50:24;;;;;;;1.20;1.15;;;12.10;59.90;;;;;;20313;6912;279579;-89
2022/11/04 04:52:50;;;;;;;0.60;0.60;;;12.20;59.70;;;;;;20509;6912;118745;-90
2022/11/04 04:55:16;;;;;;;2.07;1.87;;;12.40;58.60;;;;;;20302;6912;307334;-89
2022/11/04 04:57:44;;;;;;;2.30;1.50;;;12.40;58.50;;;;;;20310;6912;342682;-90
2022/11/04 05:00:12;;;;;;;1.00;0.90;;;12.70;57.50;;;;;;20284;6912;342250;-90
2022/11/04 05:02:38;;;;;;;1.07;0.80;;;12.90;56.80;;;;;;20492;6912;117955;-90
2022/11/04 05:05:05;;;;;;;1.07;0.70;;;12.70;56.90;;;;;;20518;6910;119019;-90
2022/11/04 05:07:31;;;;;;;0.60;0.57;;;12.40;57.70;;;;;;20527;6911;118806;-91
2022/11/04 05:09:56;;;;;;;0.70;0.70;;;12.10;58.40;;;;;;20298;6911;301210;-91
2022/11/04 05:12:22;;;;;;;2.43;0.83;;;12.20;58.20;;;;;;20516;6911;117568;-90
2022/11/04 05:14:47;;;;;;;0.67;0.67;;;12.10;58.10;;;;;;20522;6911;122072;-89
2022/11/04 05:17:13;;;;;;;0.50;0.50;;;11.80;58.50;;;;;;20461;6912;119586;-89
2022/11/04 05:19:39;;;;;;;0.80;0.80;;;11.70;59.30;;;;;;20283;6912;347919;-90
2022/11/04 05:22:04;;;;;;;1.53;1.10;;;11.80;59.20;;;;;;20280;6912;278559;-89
2022/11/04 05:24:30;;;;;;;1.40;1.20;;;12.20;59.10;;;;;;20297;6912;279164;-90
2022/11/04 05:26:56;;;;;;;1.13;1.03;;;12.40;58.20;;;;;;20505;6912;117461;-90
2022/11/04 05:29:22;;;;;;;1.47;0.97;;;12.40;58.20;;;;;;20490;6912;117394;-90
2022/11/04 05:31:47;;;;;;;0.90;0.90;;;12.10;58.90;;;;;;20288;6912;313902;-90
2022/11/04 05:34:13;;;;;;;0.73;0.70;;;12.20;59.00;;;;;;20505;6912;119633;-90
2022/11/04 05:36:39;;;;;;;2.00;1.90;;;12.00;59.50;;;;;;20506;6908;118078;-90
2022/11/04 05:39:05;;;;;;;1.47;1.37;;;12.00;59.40;;;;;;20325;6898;282275;-90
2022/11/04 05:41:30;;;;;;;2.67;2.45;;;12.10;58.60;;;;;;20315;6898;314035;-90
2022/11/04 05:43:56;;;;;;;4.13;3.83;;;12.40;57.70;;;;;;20497;6904;118140;-89
2022/11/04 05:46:22;;;;;;;7.60;7.00;;;12.30;57.70;;;;;;20286;6907;338552;-89
2022/11/04 05:48:47;;;;;;;4.18;3.97;;;12.30;57.50;;;;;;20525;6907;118952;-90
2022/11/04 05:51:14;;;;;;;3.03;2.90;;;12.30;57.60;;;;;;20319;6907;329410;-90
2022/11/04 05:53:39;;;;;;;3.60;3.40;;;12.20;57.50;;;;;;20317;6904;337453;-89
2022/11/04 05:56:05;;;;;;;3.45;3.33;;;12.50;57.10;;;;;;20498;6890;117494;-89
2022/11/04 05:58:31;;;;;;;2.30;2.10;;;12.10;58.00;;;;;;20504;6912;119046;-90
2022/11/04 06:01:23;;;;;;;1.73;1.63;;;12.10;57.90;;;;;;20546;6905;118056;-90
2022/11/04 06:03:48;;;;;;;1.50;1.50;;;11.80;58.60;;;;;;20327;6901;279738;-90
2022/11/04 06:06:14;;;;;;;1.48;1.37;;;12.00;58.40;;;;;;20354;6920;338226;-89
2022/11/04 06:08:40;;;;;;;2.33;1.20;;;12.30;57.80;;;;;;20577;6905;116410;-90
2022/11/04 06:11:06;;;;;;;2.77;2.60;;;12.30;57.80;;;;;;20567;6905;118531;-91
2022/11/04 06:13:32;;;;;;;2.33;2.23;;;12.00;58.40;;;;;;20514;6920;117549;-92
2022/11/04 06:15:57;;;;;;;3.30;3.10;;;11.70;58.80;;;;;;20528;6904;126803;-91
2022/11/04 06:18:24;;;;;;;2.00;1.90;;;11.40;59.80;;;;;;20554;6896;116662;-92
2022/11/04 06:20:50;;;;;;;2.30;2.20;;;11.30;60.10;;;;;;20586;6890;117461;-91
2022/11/04 06:23:16;;;;;;;2.20;2.10;;;11.30;60.10;;;;;;20478;6905;117642;-91
2022/11/04 06:25:41;;;;;;;3.00;2.80;;;11.20;60.30;;;;;;20329;6906;309525;-91
2022/11/04 06:28:07;;;;;;;3.70;3.50;;;11.40;59.60;;;;;;20521;6907;118557;-90
2022/11/04 06:30:32;;;;;;;2.25;2.08;;;11.50;59.50;;;;;;20314;6911;344381;-91
2022/11/04 06:32:58;;;;;;;2.07;1.93;;;11.70;59.20;;;;;;20339;6905;292725;-91
2022/11/04 06:35:24;;;;;;;2.85;1.85;;;12.00;58.20;;;;;;20532;6905;115974;-91
2022/11/04 06:37:49;;;;;;;1.95;1.75;;;12.00;58.20;;;;;;20302;6911;282025;-91
2022/11/04 06:40:15;;;;;;;2.70;1.83;;;12.10;57.80;;;;;;20321;6911;280863;-91
2022/11/04 06:42:41;;;;;;;1.80;1.70;;;12.30;57.00;;;;;;20309;6911;314957;-90
2022/11/04 06:45:06;;;;;;;2.28;2.17;;;12.50;56.40;;;;;;20313;6911;289924;-92
2022/11/04 06:47:32;;;;;;;3.77;3.47;;;12.70;55.60;;;;;;20343;6905;338183;-90
2022/11/04 06:49:58;;;;;;;3.67;3.37;;;12.90;54.70;;;;;;20319;6905;309108;-91
2022/11/04 06:55:19;;;;;;;2.90;2.60;;;12.60;55.20;;;;;;20710;6771;117841;-90
2022/11/04 06:57:59;;;;;;;3.08;2.87;;;12.20;56.40;;;;;;20378;6786;323706;-88
2022/11/04 07:00:32;;;;;;;3.03;2.80;;;12.20;56.20;;;;;;20783;6766;117759;-89
2022/11/04 07:03:08;;;;;;;2.40;2.30;;;12.10;56.50;;;;;;20758;6773;120085;-86
2022/11/04 07:05:43;;;;;;;2.70;2.50;;;11.80;57.10;;;;;;20526;6774;336510;-88
2022/11/04 07:08:19;;;;;;;2.60;2.40;;;11.90;56.80;;;;;;20435;6759;280453;-90
2022/11/04 07:10:55;;;;;;;2.40;2.30;;;12.50;55.70;;;;;;20588;6764;282415;-92
2022/11/04 07:13:41;;;;;;;;;;;;;;;;;;;;;
2022/11/04 07:16:12;;;;;;;2.03;1.93;;;12.30;55.80;;;;;;20652;6764;122186;-90
2022/11/04 07:18:42;;;;;;;1.60;1.53;;;12.00;56.70;;;;;;20786;6764;123459;-87
2022/11/04 07:21:18;;;;;;;2.17;2.00;;;11.70;57.40;;;;;;20533;6776;308102;-87
2022/11/04 07:23:54;;;;;;;1.73;1.63;;;12.20;56.90;;;;;;20497;6835;282472;-88
2022/11/04 07:26:42;;;;;;;1.90;1.80;;;12.20;56.60;;;;;;20511;6774;343057;-88
2022/11/04 07:29:21;;;;;;;2.00;1.90;;;12.50;55.80;;;;;;20491;6844;326274;-88
2022/11/04 07:31:47;;;;;;;2.33;1.42;;;12.70;55.10;;;;;;20526;6772;306954;-86
2022/11/04 07:34:27;;;;;;;2.30;1.60;;;12.70;55.40;;;;;;20649;6764;118642;-87
2022/11/04 07:36:59;;;;;;;1.53;1.50;;;12.60;55.40;;;;;;20684;6788;113690;-86
2022/11/04 07:39:34;;;;;;;2.25;2.10;;;12.30;56.20;;;;;;20531;6789;337330;-88
2022/11/04 07:42:10;;;;;;;1.87;1.87;;;12.40;56.10;;;;;;20670;6848;118406;-86
2022/11/04 07:44:46;;;;;;;1.90;1.80;;;12.30;56.30;;;;;;20508;6789;327591;-88
2022/11/04 07:47:30;;;;;;;1.47;1.37;;;12.40;56.50;;;;;;20639;6789;118781;-87
2022/11/04 07:49:57;;;;;;;1.60;1.50;;;12.40;56.70;;;;;;20799;6759;117807;-90
2022/11/04 07:52:42;;;;;;;1.80;1.50;;;12.20;57.20;;;;;;20691;6791;118180;-89
2022/11/04 07:55:09;;;;;;;1.80;1.70;;;12.00;58.20;;;;;;20766;6763;117589;-89
2022/11/04 07:57:44;;;;;;;1.50;1.37;;;11.90;58.10;;;;;;20654;6749;117075;-88
2022/11/04 08:00:21;;;;;;;2.90;1.90;;;12.20;57.50;;;;;;20465;6789;307424;-88
2022/11/04 08:02:56;;;;;;;1.60;1.50;;;12.20;57.50;;;;;;20511;6789;278855;-88
2022/11/04 08:05:32;;;;;;;1.47;1.43;;;12.60;56.30;;;;;;20720;6777;118865;-88
2022/11/04 08:08:07;;;;;;;1.80;1.10;;;12.60;56.30;;;;;;20349;6765;343900;-89
2022/11/04 08:10:43;;;;;;;1.60;1.50;;;12.80;56.70;;;;;;20641;6793;117399;-88
2022/11/04 08:13:20;;;;;;;2.45;1.30;;;12.90;57.00;;;;;;20459;6779;279596;-91
2022/11/04 08:15:56;;;;;;;1.23;1.20;;;13.20;56.20;;;;;;20635;6781;118988;-89
2022/11/04 08:18:43;;;;;;;;;;;;;;;;;;;;;
2022/11/04 08:21:18;;;;;;;;;;;;;;;;;;;;;
2022/11/04 08:23:54;;;;;;;;;;;;;;;;;;;;;
2022/11/04 08:26:20;;;;;;;1.37;1.27;;;13.80;54.60;;;;;;19924;6786;279571;-91
2022/11/04 08:28:55;;;;;;;1.20;1.20;;;14.20;53.70;;;;;;20577;6773;325237;-92
2022/11/04 08:31:41;;;;;;;1.70;1.60;;;14.50;52.50;;;;;;20643;6850;117457;-92
2022/11/04 08:34:08;;;;;;;1.97;1.00;;;14.40;53.00;;;;;;20705;6776;118336;-89
2022/11/04 08:36:43;;;;;;;1.50;1.40;;;14.20;53.70;;;;;;20636;6840;117487;-89
2022/11/04 08:39:19;;;;;;;1.52;1.42;;;14.00;54.20;;;;;;20591;6754;278012;-93
2022/11/04 08:41:55;;;;;;;1.50;1.40;;;14.20;52.40;;;;;;20568;6781;284237;-90
2022/11/04 08:44:40;;;;;;;;;;;;;;;;;;;;;
2022/11/04 08:47:09;;;;;;;1.30;1.30;;;14.80;51.70;;;;;;20483;6754;279764;-90
2022/11/04 08:49:44;;;;;;;1.63;1.50;;;15.10;51.30;;;;;;20818;6810;117516;-92
2022/11/04 08:52:20;;;;;;;1.42;1.40;;;14.90;51.80;;;;;;20643;6754;277721;-92
2022/11/04 08:54:55;;;;;;;1.23;1.20;;;14.90;51.60;;;;;;20505;6784;285925;-88
2022/11/04 08:57:31;;;;;;;1.30;1.30;;;15.10;51.20;;;;;;20682;6769;119349;-89
2022/11/04 09:00:10;;;;;;;1.67;1.33;;;14.90;51.80;;;;;;20785;6766;117426;-91
2022/11/04 09:02:56;;;;;;;1.50;1.40;;;14.60;52.90;;;;;;20432;6809;306228;-89
2022/11/04 09:05:23;;;;;;;1.97;1.77;;;14.70;51.80;;;;;;20842;6753;117150;-90
2022/11/04 09:08:09;;;;;;;;;;;;;;;;;;;;;
2022/11/04 09:10:34;;;;;;;1.60;1.50;;;14.70;51.70;;;;;;20767;6769;118107;-90
2022/11/04 09:13:22;;;;;;;1.55;1.45;;;14.70;52.20;;;;;;20476;6757;306668;-90
2022/11/04 09:15:48;;;;;;;1.67;1.33;;;14.80;52.10;;;;;;20704;6781;117438;-90
2022/11/04 09:18:24;;;;;;;1.48;1.40;;;14.70;52.60;;;;;;20422;6771;337833;-91
2022/11/04 09:23:39;;;;;;;1.67;1.57;;;15.10;51.60;;;;;;20389;6813;283085;-92
2022/11/04 09:26:24;;;;;;;1.43;1.33;;;15.30;50.90;;;;;;20583;6827;122199;-92
2022/11/04 09:28:53;;;;;;;1.17;1.17;;;15.20;51.60;;;;;;20743;6801;116354;-92
2022/11/04 09:31:29;;;;;;;2.17;1.97;;;14.90;52.30;;;;;;20777;6773;117129;-88
2022/11/04 09:34:05;;;;;;;1.30;1.30;;;14.50;53.30;;;;;;20668;6834;124073;-89
2022/11/04 09:36:42;;;;;;;1.33;1.23;;;14.50;53.30;;;;;;20722;6777;117321;-89
2022/11/04 09:39:17;;;;;;;1.43;1.27;;;14.30;53.90;;;;;;20754;6781;118319;-89
2022/11/04 09:42:10;;;;;;;1.50;1.40;;;14.30;53.90;;;;;;20536;6781;278230;-90
2022/11/04 09:44:54;;;;;;;1.70;1.60;;;14.50;52.80;;;;;;20752;6781;118308;-91
2022/11/04 09:47:30;;;;;;;1.60;1.50;;;14.60;53.00;;;;;;20424;6837;309364;-89
2022/11/04 09:50:07;;;;;;;1.67;1.50;;;14.90;53.10;;;;;;20787;6763;118013;-88
2022/11/04 09:52:43;;;;;;;1.67;1.50;;;14.90;52.50;;;;;;20558;6777;292017;-89
2022/11/04 09:55:38;;;;;;;1.70;1.60;;;15.10;51.70;;;;;;20576;6819;277589;-91
2022/11/04 09:58:13;;;;;;;1.73;1.60;;;15.50;50.50;;;;;;20433;6762;339334;-92
2022/11/04 10:00:55;;;;;;;1.40;1.30;;;15.70;50.30;;;;;;20816;6762;117639;-90
2022/11/04 10:03:38;;;;;;;1.40;1.30;;;15.50;51.20;;;;;;20761;6777;117749;-93
2022/11/04 10:06:24;;;;;;;1.50;1.40;;;15.50;51.20;;;;;;20466;6824;309700;-89
2022/11/04 10:09:02;;;;;;;1.63;1.30;;;15.70;50.40;;;;;;20755;6788;121014;-89
2022/11/04 10:11:50;;;;;;;1.50;1.40;;;15.70;50.80;;;;;;20575;6772;279421;-90
2022/11/04 10:14:36;;;;;;;1.45;1.35;;;15.90;49.90;;;;;;20474;6798;313395;-89
2022/11/04 10:17:39;;;;;;;;;;;;;;;;;;;;;
2022/11/04 10:20:02;;;;;;;3.10;1.65;;;16.10;49.60;;;;;;20494;6834;339180;-89
2022/11/04 10:22:37;;;;;;;1.30;1.20;;;16.20;49.10;;;;;;20707;6849;123137;-88
2022/11/04 10:25:14;;;;;;;1.13;1.10;;;15.90;50.60;;;;;;20824;6762;117156;-90
2022/11/04 10:27:50;;;;;;;2.10;1.60;;;15.90;50.60;;;;;;20589;6792;119663;-89
2022/11/04 10:30:28;;;;;;;1.90;1.40;;;16.00;49.90;;;;;;20544;6777;282724;-93
2022/11/04 10:33:22;;;;;;;1.60;1.50;;;15.90;49.70;;;;;;20488;6792;312520;-89
2022/11/04 10:36:04;;;;;;;1.20;1.10;;;16.70;47.90;;;;;;20453;6796;307341;-89
2022/11/04 10:38:43;;;;;;;1.07;1.07;;;16.60;47.80;;;;;;20721;6793;117295;-89
2022/11/04 10:41:23;;;;;;;1.40;1.27;;;16.60;48.70;;;;;;20538;6777;336659;-93
2022/11/04 10:44:01;;;;;;;1.33;1.10;;;16.60;47.80;;;;;;20761;6777;117242;-89
2022/11/04 10:46:51;;;;;;;2.05;1.45;;;16.60;48.40;;;;;;20426;6777;339537;-88
2022/11/04 10:49:53;;;;;;;0.90;0.90;;;16.70;46.60;;;;;;20716;6834;117746;-88
2022/11/04 10:52:20;;;;;;;2.03;1.17;;;16.60;47.90;;;;;;20802;6777;121382;-89
2022/11/04 10:55:06;;;;;;;;;;;;;;;;;;;;;
2022/11/04 10:57:41;;;;;;;1.57;1.17;;;16.50;47.40;;;;;;20653;6781;117334;-87
2022/11/04 11:00:09;;;;;;;1.53;0.83;;;16.40;47.90;;;;;;20754;6834;117624;-90
2022/11/04 11:02:44;;;;;;;1.07;0.90;;;16.20;48.30;;;;;;20715;6845;118444;-88
2022/11/04 11:05:24;;;;;;;1.80;0.90;;;16.00;48.80;;;;;;20693;6802;117878;-87
2022/11/04 11:08:01;;;;;;;1.80;0.90;;;15.90;49.50;;;;;;20561;6826;118878;-89
2022/11/04 11:10:37;;;;;;;1.43;1.20;;;15.70;49.90;;;;;;20816;6809;120962;-88
2022/11/04 11:13:12;;;;;;;1.07;0.90;;;15.60;50.20;;;;;;20791;6768;118526;-89
2022/11/04 11:15:54;;;;;;;1.57;1.33;;;15.60;50.40;;;;;;20736;6785;122236;-90
2022/11/04 11:18:37;;;;;;;1.87;1.10;;;15.50;50.50;;;;;;20652;6770;119054;-89
2022/11/04 11:21:12;;;;;;;;;;;;;;;;;;;;;
2022/11/04 11:23:41;;;;;;;2.37;1.30;;;15.40;51.10;;;;;;20487;6807;276760;-92
2022/11/04 11:26:20;;;;;;;2.17;0.87;;;15.70;48.20;;;;;;20788;6768;118202;-92
2022/11/04 11:29:11;;;;;;;1.90;1.30;;;15.80;48.60;;;;;;20480;6853;302568;-88
2022/11/04 11:31:37;;;;;;;1.93;1.17;;;16.00;48.10;;;;;;20701;6772;117578;-90
2022/11/04 11:34:32;;;;;;;1.00;1.00;;;16.00;48.60;;;;;;20800;6766;121808;-91
2022/11/04 11:37:06;;;;;;;1.47;1.10;;;15.90;49.10;;;;;;20481;6822;312686;-88
2022/11/04 11:39:40;;;;;;;1.60;1.10;;;16.20;47.40;;;;;;20851;6807;120096;-90
2022/11/04 11:42:26;;;;;;;;;;;;;;;;;;;;;
2022/11/04 11:44:52;;;;;;;3.37;1.30;;;16.00;48.60;;;;;;20782;6751;120641;-88
2022/11/04 11:47:28;;;;;;;2.63;1.23;;;15.80;49.00;;;;;;20579;6781;116896;-87
2022/11/04 11:50:17;;;;;;;1.87;1.40;;;15.80;49.00;;;;;;20493;6795;303254;-88
2022/11/04 11:52:53;;;;;;;2.23;1.00;;;16.00;47.40;;;;;;20753;6798;116550;-88
2022/11/04 11:55:31;;;;;;;1.33;1.20;;;16.00;48.10;;;;;;20551;6833;307222;-89
2022/11/04 11:58:10;;;;;;;1.70;1.12;;;16.30;47.30;;;;;;20379;6780;280082;-88
2022/11/04 12:01:06;;;;;;;0.87;0.77;;;16.60;46.50;;;;;;20733;6781;117311;-86
2022/11/04 12:03:42;;;;;;;1.73;1.02;;;16.60;47.00;;;;;;20619;6779;335966;-90
2022/11/04 12:06:28;;;;;;;2.37;1.50;;;16.70;46.00;;;;;;20582;6781;119814;-88
2022/11/04 12:09:40;;;;;;;2.20;1.13;;;16.70;46.90;;;;;;20757;6775;116262;-90
2022/11/04 12:12:38;;;;;;;1.67;1.20;;;16.40;47.50;;;;;;20669;6782;117501;-88
2022/11/04 12:15:17;;;;;;;1.87;1.20;;;16.10;48.10;;;;;;20594;6766;308768;-88
2022/11/04 12:18:13;;;;;;;1.57;1.00;;;16.30;46.80;;;;;;20601;6756;118445;-86
2022/11/04 12:21:08;;;;;;;1.70;1.20;;;16.30;47.20;;;;;;20767;6768;117853;-87
2022/11/04 12:23:52;;;;;;;1.50;1.20;;;15.90;48.90;;;;;;20792;6768;117095;-87
2022/11/04 12:26:57;;;;;;;2.37;1.50;;;15.90;48.20;;;;;;20541;6765;310547;-88
2022/11/04 12:30:02;;;;;;;2.47;1.30;;;16.10;45.80;;;;;;20565;6765;318397;-88
2022/11/04 12:32:45;;;;;;;2.00;1.20;;;16.50;46.50;;;;;;20732;6780;117838;-88
2022/11/04 12:35:35;;;;;;;3.67;1.20;;;16.40;46.70;;;;;;20745;6782;117138;-86
2022/11/04 12:38:20;;;;;;;0.93;0.70;;;16.20;47.40;;;;;;20483;6790;121411;-87
2022/11/04 12:40:59;;;;;;;1.63;1.13;;;16.10;48.00;;;;;;20756;6766;122297;-87
2022/11/04 12:43:55;;;;;;;1.50;1.33;;;16.00;48.30;;;;;;20649;6852;119038;-87
2022/11/04 12:46:40;;;;;;;1.57;1.20;;;15.90;48.40;;;;;;20711;6780;117780;-87
2022/11/04 12:49:17;;;;;;;1.97;1.27;;;15.90;48.70;;;;;;20515;6826;279235;-87
2022/11/04 12:51:52;;;;;;;2.90;1.10;;;16.20;46.90;;;;;;20665;6795;118510;-87
2022/11/04 12:54:40;;;;;;;2.83;1.23;;;16.40;47.30;;;;;;20480;6782;329554;-85
2022/11/04 12:57:25;;;;;;;1.70;1.10;;;16.60;45.80;;;;;;20434;6773;310470;-86
2022/11/04 13:00:11;;;;;;;3.92;1.52;;;17.40;44.40;;;;;;20420;6779;312381;-87
2022/11/04 13:02:47;;;;;;;2.40;1.25;;;17.60;44.30;;;;;;20561;6766;307206;-86
2022/11/04 13:05:30;;;;;;;1.57;1.20;;;17.60;44.30;;;;;;20747;6772;118623;-86
2022/11/04 13:08:08;;;;;;;1.60;1.27;;;17.50;45.30;;;;;;20415;6766;306809;-87
2022/11/04 13:10:44;;;;;;;1.30;1.20;;;17.60;44.50;;;;;;20670;6780;117263;-86
2022/11/04 13:13:20;;;;;;;4.80;1.20;;;17.60;44.30;;;;;;20532;6779;278238;-87
2022/11/04 13:15:56;;;;;;;2.27;1.30;;;17.60;44.30;;;;;;20614;6779;119325;-86
2022/11/04 13:18:33;;;;;;;3.07;1.10;;;17.60;45.30;;;;;;20678;6783;119913;-86
2022/11/04 13:21:18;;;;;;;2.40;1.25;;;17.40;46.00;;;;;;20307;6764;341156;-86
2022/11/04 13:23:51;;;;;;;1.67;1.10;;;17.60;44.70;;;;;;20731;6781;118614;-86
2022/11/04 13:26:26;;;;;;;2.10;1.23;;;17.60;45.40;;;;;;20470;6772;340333;-87
2022/11/04 13:29:09;;;;;;;1.95;1.27;;;17.80;43.90;;;;;;20514;6782;309152;-88
2022/11/04 13:31:54;;;;;;;2.03;1.27;;;18.20;41.70;;;;;;20686;6784;117412;-87
2022/11/04 13:34:31;;;;;;;2.80;1.27;;;18.20;43.10;;;;;;20512;6841;279619;-86
2022/11/04 13:37:12;;;;;;;1.95;1.50;;;18.30;42.40;;;;;;20386;6824;310862;-86
2022/11/04 13:39:48;;;;;;;2.78;1.60;;;18.50;41.90;;;;;;20524;6766;309713;-87
2022/11/04 13:42:49;;;;;;;2.03;1.40;;;18.70;41.50;;;;;;20452;6764;276761;-87
2022/11/04 13:45:25;;;;;;;2.00;1.20;;;18.80;41.00;;;;;;20544;6764;288599;-86
2022/11/04 13:48:10;;;;;;;;;;;;;;;;;;;;;
2022/11/04 13:50:36;;;;;;;1.47;1.00;;;19.00;41.20;;;;;;20779;6761;117155;-86
2022/11/04 13:53:12;;;;;;;1.33;1.20;;;18.80;42.40;;;;;;20560;6761;296709;-86
2022/11/04 13:55:47;;;;;;;1.60;1.30;;;18.70;41.00;;;;;;20592;6761;276070;-87
2022/11/04 13:58:23;;;;;;;2.45;1.30;;;18.90;40.80;;;;;;20386;6761;337615;-87
2022/11/04 14:01:11;;;;;;;1.43;0.77;;;19.00;40.30;;;;;;20793;6761;118379;-86
2022/11/04 14:03:47;;;;;;;2.17;1.00;;;18.80;41.50;;;;;;20800;6761;117643;-88
2022/11/04 14:06:46;;;;;;;2.65;1.20;;;18.40;42.60;;;;;;20567;6761;311036;-87
2022/11/04 14:09:28;;;;;;;2.07;0.80;;;18.50;41.30;;;;;;20643;6782;117567;-87
2022/11/04 14:12:13;;;;;;;2.50;1.27;;;18.40;42.20;;;;;;20455;6776;310891;-87
2022/11/04 14:14:50;;;;;;;1.77;1.00;;;18.70;40.20;;;;;;20538;6776;307509;-88
2022/11/04 14:17:34;;;;;;;1.63;1.10;;;18.60;40.80;;;;;;20441;6797;122726;-86
2022/11/04 14:20:19;;;;;;;1.80;0.90;;;18.50;41.40;;;;;;20544;6768;314342;-86
2022/11/04 14:22:56;;;;;;;1.53;0.93;;;18.50;41.30;;;;;;20732;6783;118837;-88
2022/11/04 14:25:44;;;;;;;3.33;1.23;;;18.40;42.10;;;;;;20495;6782;308263;-88